createdAt,value
2018-07-31T00:01:08.917Z,89.40
2018-07-31T00:03:38.717Z,89.40
2018-07-31T00:06:12.098Z,89.80
2018-07-31T00:08:41.154Z,89.70
2018-07-31T00:11:10.274Z,89.90
2018-07-31T00:13:39.365Z,89.80
2018-07-31T00:16:09.331Z,89.50
2018-07-31T00:18:38.465Z,89.50
2018-07-31T00:21:07.872Z,89.40
2018-07-31T00:23:37.169Z,89.30
2018-07-31T00:26:07.073Z,89.70
2018-07-31T00:28:36.804Z,89.90
2018-07-31T00:31:06.116Z,89.50
2018-07-31T00:33:35.313Z,89.50
2018-07-31T00:36:04.705Z,88.90
2018-07-31T00:38:33.790Z,89.00
2018-07-31T00:41:03.709Z,89.00
2018-07-31T00:43:32.822Z,89.20
2018-07-31T00:46:01.946Z,89.40
2018-07-31T00:48:31.050Z,89.40
2018-07-31T00:51:01.005Z,89.10
2018-07-31T00:53:30.136Z,88.90
2018-07-31T00:55:59.233Z,89.00
2018-07-31T00:58:28.329Z,89.00
2018-07-31T01:00:57.478Z,88.90
2018-07-31T01:03:26.593Z,89.10
2018-07-31T01:05:56.137Z,88.90
2018-07-31T01:08:25.234Z,88.90
2018-07-31T01:10:54.330Z,88.90
2018-07-31T01:13:23.432Z,89.00
2018-07-31T01:15:52.555Z,88.50
2018-07-31T01:18:21.669Z,88.30
2018-07-31T01:20:52.030Z,88.30
2018-07-31T01:23:21.145Z,88.10
2018-07-31T01:25:50.301Z,87.70
2018-07-31T01:28:19.383Z,87.70
2018-07-31T01:30:48.643Z,87.80
2018-07-31T01:33:17.929Z,88.20
2018-07-31T01:35:47.359Z,88.00
2018-07-31T01:38:16.699Z,88.10
2018-07-31T01:40:46.004Z,88.00
2018-07-31T01:43:15.265Z,88.10
2018-07-31T01:45:44.778Z,88.10
2018-07-31T01:48:14.909Z,88.20
2018-07-31T01:50:44.157Z,88.30
2018-07-31T01:53:13.234Z,87.90
2018-07-31T01:55:42.334Z,88.00
2018-07-31T01:58:11.417Z,87.90
2018-07-31T02:00:40.521Z,87.90
2018-07-31T02:03:09.613Z,88.20
2018-07-31T02:05:38.780Z,88.20
2018-07-31T02:08:08.298Z,88.30
2018-07-31T02:10:37.521Z,88.10
2018-07-31T02:13:06.669Z,88.50
2018-07-31T02:15:35.830Z,88.50
2018-07-31T02:18:05.271Z,88.30
2018-07-31T02:20:34.556Z,87.90
2018-07-31T02:23:04.692Z,88.00
2018-07-31T02:25:33.829Z,88.20
2018-07-31T02:28:03.140Z,88.10
2018-07-31T02:30:32.278Z,88.00
2018-07-31T02:35:29.969Z,88.10
2018-07-31T02:37:59.854Z,88.30
2018-07-31T02:42:59.542Z,88.60
2018-07-31T02:45:28.718Z,88.70
2018-07-31T02:47:57.811Z,88.70
2018-07-31T02:50:26.927Z,88.80
2018-07-31T02:52:55.945Z,88.80
2018-07-31T02:55:25.022Z,88.90
2018-07-31T02:57:54.065Z,88.80
2018-07-31T03:00:23.241Z,88.80
2018-07-31T03:02:53.097Z,88.70
2018-07-31T03:05:22.246Z,88.60
2018-07-31T03:07:51.265Z,88.80
2018-07-31T03:12:48.957Z,89.00
2018-07-31T03:15:18.021Z,89.20
2018-07-31T03:17:47.100Z,89.20
2018-07-31T03:20:16.182Z,89.30
2018-07-31T03:22:45.251Z,89.00
2018-07-31T03:25:14.310Z,88.90
2018-07-31T03:27:43.405Z,88.80
2018-07-31T03:32:40.996Z,88.50
2018-07-31T03:35:10.056Z,88.50
2018-07-31T03:37:39.108Z,88.70
2018-07-31T03:40:08.169Z,88.60
2018-07-31T03:45:06.621Z,88.60
2018-07-31T03:47:35.664Z,88.60
2018-07-31T03:50:05.077Z,88.90
2018-07-31T03:55:04.068Z,89.10
2018-07-31T03:57:33.120Z,89.40
2018-07-31T04:00:02.527Z,89.20
2018-07-31T04:02:31.523Z,89.60
2018-07-31T04:05:00.534Z,88.80
2018-07-31T04:07:29.782Z,88.60
2018-07-31T04:09:58.802Z,88.50
2018-07-31T04:12:27.910Z,88.60
2018-07-31T04:14:56.936Z,88.90
2018-07-31T04:17:26.016Z,88.90
2018-07-31T04:19:55.080Z,89.00
2018-07-31T04:22:24.772Z,88.90
2018-07-31T04:27:22.786Z,88.20
2018-07-31T04:29:51.904Z,88.60
2018-07-31T04:32:20.976Z,88.40
2018-07-31T04:34:49.992Z,88.20
2018-07-31T04:37:19.085Z,88.20
2018-07-31T04:39:48.640Z,88.20
2018-07-31T04:42:17.806Z,88.20
2018-07-31T04:47:15.444Z,87.70
2018-07-31T04:49:44.524Z,87.50
2018-07-31T04:52:13.605Z,87.40
2018-07-31T04:54:42.707Z,87.30
2018-07-31T04:57:11.764Z,87.00
2018-07-31T04:59:40.878Z,86.20
2018-07-31T05:02:09.936Z,86.00
2018-07-31T05:04:39.643Z,86.30
2018-07-31T05:07:08.729Z,85.70
2018-07-31T05:09:37.761Z,85.40
2018-07-31T05:12:06.853Z,85.00
2018-07-31T05:14:35.953Z,84.40
2018-07-31T05:19:33.679Z,83.60
2018-07-31T05:22:02.813Z,83.40
2018-07-31T05:24:31.901Z,83.10
2018-07-31T05:27:01.268Z,82.80
2018-07-31T05:29:30.413Z,83.00
2018-07-31T05:34:28.136Z,81.80
2018-07-31T05:36:57.165Z,80.90
2018-07-31T05:39:26.287Z,81.40
2018-07-31T05:41:55.363Z,80.90
2018-07-31T05:44:24.471Z,80.10
2018-07-31T05:46:53.537Z,79.60
2018-07-31T05:49:22.585Z,80.10
2018-07-31T05:54:20.365Z,79.50
2018-07-31T05:56:49.437Z,78.80
2018-07-31T05:59:18.540Z,78.20
2018-07-31T06:01:47.613Z,77.50
2018-07-31T06:04:16.712Z,76.90
2018-07-31T06:06:45.788Z,76.80
2018-07-31T06:09:14.905Z,75.90
2018-07-31T06:11:43.952Z,75.50
2018-07-31T06:14:13.070Z,75.20
2018-07-31T06:16:42.801Z,75.30
2018-07-31T06:19:11.876Z,75.10
2018-07-31T06:21:40.906Z,75.50
2018-07-31T06:26:38.542Z,74.90
2018-07-31T06:29:07.668Z,74.70
2018-07-31T06:31:36.825Z,74.50
2018-07-31T06:34:06.098Z,74.50
2018-07-31T06:36:35.326Z,73.80
2018-07-31T06:39:06.078Z,73.40
2018-07-31T06:41:35.179Z,73.10
2018-07-31T06:44:05.150Z,73.00
2018-07-31T06:46:34.317Z,71.50
2018-07-31T06:51:32.470Z,70.70
2018-07-31T06:56:30.149Z,71.00
2018-07-31T06:58:59.314Z,70.60
2018-07-31T07:01:28.337Z,70.00
2018-07-31T07:03:57.425Z,69.60
2018-07-31T07:06:26.517Z,69.40
2018-07-31T07:08:55.629Z,69.60
2018-07-31T07:11:24.668Z,69.60
2018-07-31T07:13:53.734Z,69.40
2018-07-31T07:16:22.776Z,68.40
2018-07-31T07:18:51.789Z,67.20
2018-07-31T07:21:20.825Z,67.00
2018-07-31T07:23:49.882Z,66.80
2018-07-31T07:26:22.025Z,66.40
2018-07-31T07:28:51.152Z,67.30
2018-07-31T07:31:20.525Z,67.90
2018-07-31T07:33:49.644Z,67.60
2018-07-31T07:36:18.733Z,68.00
2018-07-31T07:38:48.727Z,66.30
2018-07-31T07:41:17.720Z,65.40
2018-07-31T07:43:47.493Z,64.20
2018-07-31T07:46:16.608Z,63.40
2018-07-31T07:51:15.728Z,61.40
2018-07-31T07:53:45.010Z,60.50
2018-07-31T07:56:14.426Z,60.20
2018-07-31T07:58:43.483Z,60.20
2018-07-31T08:01:12.563Z,61.70
2018-07-31T08:03:41.638Z,62.30
2018-07-31T08:06:10.763Z,62.60
2018-07-31T08:08:39.941Z,62.10
2018-07-31T08:11:09.387Z,62.70
2018-07-31T08:13:39.053Z,62.30
2018-07-31T08:16:08.084Z,62.00
2018-07-31T08:18:37.145Z,61.40
2018-07-31T08:21:06.240Z,60.30
2018-07-31T08:23:35.274Z,60.10
2018-07-31T08:26:04.388Z,58.50
2018-07-31T08:28:33.481Z,58.00
2018-07-31T08:31:02.613Z,57.30
2018-07-31T08:33:31.719Z,56.50
2018-07-31T08:36:02.524Z,56.80
2018-07-31T08:38:31.623Z,57.10
2018-07-31T08:41:00.685Z,56.20
2018-07-31T08:43:31.973Z,54.80
2018-07-31T08:46:01.158Z,54.70
2018-07-31T08:48:30.348Z,53.50
2018-07-31T08:50:59.488Z,52.50
2018-07-31T08:53:28.529Z,52.80
2018-07-31T08:58:26.252Z,52.20
2018-07-31T09:00:55.396Z,52.30
2018-07-31T09:03:24.511Z,52.50
2018-07-31T09:05:54.163Z,51.80
2018-07-31T09:08:23.644Z,50.70
2018-07-31T09:10:53.014Z,48.60
2018-07-31T09:13:22.454Z,48.10
2018-07-31T09:15:52.377Z,47.90
2018-07-31T09:18:22.042Z,47.20
2018-07-31T09:20:53.416Z,44.20
2018-07-31T09:23:22.861Z,45.60
2018-07-31T09:25:54.083Z,44.30
2018-07-31T09:28:24.051Z,39.30
2018-07-31T09:30:58.725Z,39.80
2018-07-31T09:33:29.424Z,40.50
2018-07-31T09:35:59.172Z,40.40
2018-07-31T09:38:29.768Z,41.40
2018-07-31T09:40:59.107Z,41.00
2018-07-31T09:43:28.731Z,39.70
2018-07-31T09:45:58.271Z,39.20
2018-07-31T09:48:27.996Z,40.80
2018-07-31T09:50:57.992Z,40.40
2018-07-31T09:53:27.572Z,39.00
2018-07-31T09:55:57.025Z,39.20
2018-07-31T09:58:26.857Z,38.40
2018-07-31T10:01:01.444Z,38.10
2018-07-31T10:03:32.394Z,35.90
2018-07-31T10:06:01.950Z,36.00
2018-07-31T10:08:31.373Z,35.50
2018-07-31T10:11:00.929Z,35.70
2018-07-31T10:13:30.405Z,34.70
2018-07-31T10:18:28.676Z,35.30
2018-07-31T10:20:59.077Z,33.80
2018-07-31T10:23:28.505Z,32.00
2018-07-31T10:25:57.944Z,32.10
2018-07-31T10:28:27.396Z,33.60
2018-07-31T10:30:56.855Z,34.00
2018-07-31T10:33:26.198Z,33.40
2018-07-31T10:35:56.002Z,33.70
2018-07-31T10:38:25.347Z,32.40
2018-07-31T10:43:23.839Z,31.80
2018-07-31T10:45:53.166Z,31.70
2018-07-31T10:48:22.473Z,31.10
2018-07-31T10:50:52.579Z,29.80
2018-07-31T10:53:22.438Z,29.50
2018-07-31T10:55:51.804Z,29.60
2018-07-31T10:58:21.223Z,29.60
2018-07-31T11:00:50.558Z,30.70
2018-07-31T11:03:19.909Z,30.40
2018-07-31T11:05:49.335Z,31.50
2018-07-31T11:08:18.638Z,32.30
2018-07-31T11:10:48.095Z,33.30
2018-07-31T11:13:23.614Z,34.50
2018-07-31T11:15:53.040Z,34.80
2018-07-31T11:20:51.285Z,35.30
2018-07-31T11:23:20.644Z,35.40
2018-07-31T11:28:18.993Z,35.50
2018-07-31T11:30:48.509Z,35.00
2018-07-31T11:33:17.973Z,33.70
2018-07-31T11:35:47.485Z,32.60
2018-07-31T11:38:16.958Z,31.80
2018-07-31T11:40:46.267Z,30.10
2018-07-31T11:43:15.552Z,30.40
2018-07-31T11:45:44.956Z,29.10
2018-07-31T11:50:43.101Z,29.30
2018-07-31T11:53:12.959Z,27.80
2018-07-31T11:58:11.306Z,28.30
2018-07-31T12:00:40.635Z,28.00
2018-07-31T12:03:10.047Z,28.00
2018-07-31T12:05:39.391Z,29.20
2018-07-31T12:08:08.689Z,28.40
2018-07-31T12:10:37.997Z,29.50
2018-07-31T12:13:07.409Z,29.20
2018-07-31T12:15:36.661Z,28.30
2018-07-31T12:20:35.237Z,27.80
2018-07-31T12:23:04.519Z,27.50
2018-07-31T12:25:34.141Z,28.70
2018-07-31T12:28:03.699Z,25.70
2018-07-31T12:30:33.052Z,24.80
2018-07-31T12:33:02.408Z,23.60
2018-07-31T12:38:00.666Z,23.70
2018-07-31T12:42:58.584Z,23.80
2018-07-31T12:45:27.798Z,23.00
2018-07-31T12:47:56.985Z,24.10
2018-07-31T12:50:26.274Z,23.70
2018-07-31T12:52:55.519Z,22.70
2018-07-31T12:55:24.912Z,22.20
2018-07-31T12:57:54.210Z,23.10
2018-07-31T13:00:23.489Z,23.50
2018-07-31T13:02:52.849Z,23.50
2018-07-31T13:07:50.834Z,24.00
2018-07-31T13:10:20.089Z,24.30
2018-07-31T13:12:49.314Z,23.40
2018-07-31T13:15:18.522Z,27.50
2018-07-31T13:17:47.828Z,27.90
2018-07-31T13:20:17.026Z,27.30
2018-07-31T13:22:46.294Z,26.50
2018-07-31T13:25:15.491Z,25.70
2018-07-31T13:27:47.760Z,25.60
2018-07-31T13:30:16.975Z,25.20
2018-07-31T13:32:46.299Z,24.10
2018-07-31T13:37:44.321Z,24.10
2018-07-31T13:40:13.576Z,24.90
2018-07-31T13:42:42.926Z,24.70
2018-07-31T13:45:12.180Z,24.10
2018-07-31T13:47:41.459Z,24.80
2018-07-31T13:50:10.837Z,25.30
2018-07-31T13:52:40.080Z,24.60
2018-07-31T13:55:09.309Z,25.10
2018-07-31T14:00:07.405Z,24.40
2018-07-31T14:02:36.653Z,24.50
2018-07-31T14:07:34.525Z,23.00
2018-07-31T14:10:03.850Z,23.20
2018-07-31T14:12:33.165Z,22.00
2018-07-31T14:15:02.878Z,22.50
2018-07-31T14:20:00.933Z,23.30
2018-07-31T14:22:33.415Z,23.60
2018-07-31T14:25:02.700Z,23.70
2018-07-31T14:27:32.085Z,24.00
2018-07-31T14:30:01.471Z,24.60
2018-07-31T14:32:30.679Z,24.10
2018-07-31T14:35:00.153Z,24.50
2018-07-31T14:37:29.427Z,24.90
2018-07-31T14:39:58.779Z,25.10
2018-07-31T14:42:28.381Z,25.20
2018-07-31T14:44:57.787Z,25.30
2018-07-31T14:47:28.285Z,25.00
2018-07-31T14:52:26.417Z,23.70
2018-07-31T14:54:56.971Z,24.30
2018-07-31T14:57:26.275Z,24.30
2018-07-31T14:59:55.607Z,24.20
2018-07-31T15:02:25.029Z,25.40
2018-07-31T15:04:54.334Z,24.80
2018-07-31T15:07:23.670Z,26.50
2018-07-31T15:09:53.026Z,26.00
2018-07-31T15:12:22.312Z,25.80
2018-07-31T15:14:51.670Z,25.40
2018-07-31T15:17:21.069Z,25.70
2018-07-31T15:19:50.430Z,26.40
2018-07-31T15:22:19.860Z,26.60
2018-07-31T15:24:49.173Z,26.70
2018-07-31T15:27:18.544Z,26.50
2018-07-31T15:29:48.007Z,26.70
2018-07-31T15:32:17.345Z,26.70
2018-07-31T15:34:52.373Z,26.70
2018-07-31T15:37:21.667Z,26.70
2018-07-31T15:39:51.362Z,26.80
2018-07-31T15:42:20.713Z,26.90
2018-07-31T15:44:51.236Z,26.80
2018-07-31T15:47:20.669Z,26.50
2018-07-31T15:49:51.124Z,26.40
2018-07-31T15:54:49.316Z,26.30
2018-07-31T15:57:18.729Z,26.40
2018-07-31T15:59:48.169Z,26.50
2018-07-31T16:02:17.669Z,26.60
2018-07-31T16:04:47.290Z,27.10
2018-07-31T16:07:16.732Z,27.30
2018-07-31T16:09:46.129Z,27.60
2018-07-31T16:12:15.536Z,28.00
2018-07-31T16:14:45.047Z,27.80
2018-07-31T16:17:14.493Z,27.90
2018-07-31T16:19:43.928Z,28.30
2018-07-31T16:22:13.360Z,28.10
2018-07-31T16:29:41.629Z,28.80
2018-07-31T16:32:10.909Z,29.20
2018-07-31T16:34:40.167Z,29.10
2018-07-31T16:39:38.544Z,29.50
2018-07-31T16:42:07.949Z,29.20
2018-07-31T16:44:37.301Z,29.40
2018-07-31T16:47:06.684Z,29.50
2018-07-31T16:49:36.249Z,29.50
2018-07-31T16:52:05.687Z,29.80
2018-07-31T16:54:35.203Z,30.00
2018-07-31T16:57:04.688Z,30.20
2018-07-31T16:59:33.995Z,30.00
2018-07-31T17:04:32.144Z,30.40
2018-07-31T17:07:01.467Z,30.60
2018-07-31T17:09:30.969Z,30.70
2018-07-31T17:12:00.386Z,30.90
2018-07-31T17:14:30.109Z,30.70
2018-07-31T17:16:59.456Z,31.10
2018-07-31T17:19:28.799Z,31.20
2018-07-31T17:21:58.115Z,31.20
2018-07-31T17:24:27.652Z,31.80
2018-07-31T17:26:57.176Z,31.50
2018-07-31T17:29:26.644Z,31.60
2018-07-31T17:31:56.019Z,32.30
2018-07-31T17:34:25.576Z,32.20
2018-07-31T17:36:54.963Z,32.50
2018-07-31T17:39:24.394Z,32.60
2018-07-31T17:41:53.719Z,31.00
2018-07-31T17:44:23.282Z,29.20
2018-07-31T17:46:52.664Z,28.00
2018-07-31T17:49:22.103Z,27.10
2018-07-31T17:51:51.560Z,26.90
2018-07-31T17:54:21.028Z,26.60
2018-07-31T17:56:50.422Z,26.60
2018-07-31T17:59:19.814Z,27.30
2018-07-31T18:01:49.176Z,27.90
2018-07-31T18:04:18.579Z,28.50
2018-07-31T18:06:47.926Z,29.00
2018-07-31T18:09:17.150Z,29.30
2018-07-31T18:11:46.536Z,29.90
2018-07-31T18:14:15.909Z,32.60
2018-07-31T18:16:46.081Z,34.80
2018-07-31T18:19:15.489Z,37.10
2018-07-31T18:21:44.812Z,38.30
2018-07-31T18:24:14.170Z,39.40
2018-07-31T18:26:43.545Z,40.30
2018-07-31T18:29:12.873Z,41.30
2018-07-31T18:31:42.236Z,41.90
2018-07-31T18:34:17.228Z,42.90
2018-07-31T18:36:46.633Z,44.20
2018-07-31T18:41:45.039Z,44.50
2018-07-31T18:44:14.494Z,44.60
2018-07-31T18:46:43.896Z,45.40
2018-07-31T18:49:13.476Z,46.40
2018-07-31T18:51:42.998Z,47.60
2018-07-31T18:54:12.595Z,47.70
2018-07-31T18:56:42.112Z,47.70
2018-07-31T18:59:11.513Z,47.60
2018-07-31T19:01:41.035Z,48.70
2018-07-31T19:04:10.744Z,50.50
2018-07-31T19:06:40.176Z,50.90
2018-07-31T19:09:11.810Z,52.00
2018-07-31T19:11:42.213Z,52.20
2018-07-31T19:14:11.663Z,53.10
2018-07-31T19:19:09.887Z,54.40
2018-07-31T19:21:39.508Z,54.80
2018-07-31T19:24:08.868Z,55.60
2018-07-31T19:26:38.485Z,55.90
2018-07-31T19:31:37.479Z,55.10
2018-07-31T19:34:06.957Z,55.40
2018-07-31T19:36:36.784Z,55.40
2018-07-31T19:39:09.049Z,55.90
2018-07-31T19:41:45.969Z,56.30
2018-07-31T19:44:15.973Z,56.70
2018-07-31T19:46:45.538Z,56.20
2018-07-31T19:49:15.152Z,56.70
2018-07-31T19:51:44.275Z,57.40
2018-07-31T19:54:13.698Z,57.20
2018-07-31T19:56:42.881Z,56.60
2018-07-31T19:59:12.094Z,55.60
2018-07-31T20:01:41.258Z,56.60
2018-07-31T20:04:10.350Z,56.50
2018-07-31T20:06:39.462Z,56.60
2018-07-31T20:09:09.719Z,56.50
2018-07-31T20:11:38.900Z,56.60
2018-07-31T20:14:08.094Z,56.70
2018-07-31T20:16:37.321Z,57.20
2018-07-31T20:19:06.581Z,58.00
2018-07-31T20:21:35.683Z,58.20
2018-07-31T20:26:33.456Z,59.00
2018-07-31T20:29:02.604Z,59.30
2018-07-31T20:31:31.678Z,60.10
2018-07-31T20:34:00.790Z,60.50
2018-07-31T20:36:29.862Z,60.80
2018-07-31T20:38:59.072Z,61.30
2018-07-31T20:41:28.173Z,61.70
2018-07-31T20:43:58.349Z,61.90
2018-07-31T20:46:27.446Z,61.90
2018-07-31T20:48:57.921Z,61.90
2018-07-31T20:51:27.165Z,61.40
2018-07-31T20:53:56.293Z,61.60
2018-07-31T20:56:25.393Z,61.50
2018-07-31T20:58:54.802Z,61.70
2018-07-31T21:01:24.010Z,61.40
2018-07-31T21:03:53.963Z,61.90
2018-07-31T21:06:23.179Z,63.10
2018-07-31T21:08:53.068Z,63.30
2018-07-31T21:11:22.199Z,64.10
2018-07-31T21:13:51.298Z,63.60
2018-07-31T21:18:49.277Z,64.20
2018-07-31T21:21:18.592Z,64.60
2018-07-31T21:26:16.496Z,65.10
2018-07-31T21:28:45.670Z,65.70
2018-07-31T21:31:14.964Z,65.90
2018-07-31T21:33:45.255Z,65.90
2018-07-31T21:36:15.584Z,66.40
2018-07-31T21:38:45.065Z,65.40
2018-07-31T21:41:14.599Z,65.30
2018-07-31T21:43:44.146Z,65.40
2018-07-31T21:46:15.917Z,65.10
2018-07-31T21:48:45.314Z,66.00
2018-07-31T21:51:18.741Z,66.60
2018-07-31T21:53:48.144Z,66.70
2018-07-31T21:56:17.628Z,66.80
2018-07-31T21:58:46.857Z,67.20
2018-07-31T22:01:16.093Z,67.40
2018-07-31T22:03:45.293Z,67.00
2018-07-31T22:08:44.738Z,67.50
2018-07-31T22:11:14.679Z,67.80
2018-07-31T22:13:44.063Z,68.00
2018-07-31T22:16:13.245Z,67.80
2018-07-31T22:18:42.830Z,67.50
2018-07-31T22:21:12.098Z,67.60
2018-07-31T22:23:41.251Z,68.10
2018-07-31T22:26:10.316Z,68.50
2018-07-31T22:28:39.481Z,68.60
2018-07-31T22:31:09.288Z,68.90
2018-07-31T22:33:38.589Z,69.20
2018-07-31T22:36:10.394Z,69.50
2018-07-31T22:41:08.542Z,70.70
2018-07-31T22:43:38.059Z,70.10
2018-07-31T22:46:07.722Z,70.20
2018-07-31T22:48:37.216Z,70.20
2018-07-31T22:51:06.761Z,70.10
2018-07-31T22:56:31.432Z,70.30
2018-07-31T22:59:00.484Z,70.20
2018-07-31T23:01:29.515Z,70.30
2018-07-31T23:03:59.105Z,70.50
2018-07-31T23:06:28.121Z,70.70
2018-07-31T23:08:57.161Z,70.90
2018-07-31T23:11:26.196Z,71.30
2018-07-31T23:13:55.282Z,71.60
2018-07-31T23:16:24.340Z,71.90
2018-07-31T23:18:53.506Z,72.40
2018-07-31T23:21:22.590Z,73.80
2018-07-31T23:23:51.552Z,73.00
2018-07-31T23:26:20.601Z,73.00
2018-07-31T23:28:49.661Z,73.10
2018-07-31T23:31:18.757Z,73.80
2018-07-31T23:33:47.791Z,73.70
2018-07-31T23:36:16.868Z,73.80
2018-07-31T23:38:45.965Z,73.80
2018-07-31T23:41:15.057Z,73.80
2018-07-31T23:43:44.216Z,73.80
2018-07-31T23:46:13.327Z,74.10
2018-07-31T23:48:42.449Z,74.30
2018-07-31T23:51:11.533Z,75.40
2018-07-31T23:53:40.899Z,74.70
2018-07-31T23:58:38.572Z,75.30
